This is the latest recevied weather packets stored in our database for station/object HP1CDW-13. If no packets are shown the sender has not sent any weather packets the latest 10 day(s).
| Time | Temp. | Humidity | Pressure | Rain* | Wind** | Luminosity | Snow |
|---|---|---|---|---|---|---|---|
| 1777680290 | 26.67° C | 95% | 1011.4 hPa | 0 mm | - | - | - |
| 1777679690 | 26.67° C | 94% | 1011.3 hPa | 0 mm | - | - | - |
| 1777679090 | 26.11° C | 94% | 1011.6 hPa | 0 mm | - | - | - |
| 1777678490 | 26.11° C | 94% | 1011.4 hPa | 0 mm | - | - | - |
| 1777677890 | 26.11° C | 95% | 1011.2 hPa | 0.25 mm | - | - | - |
| 1777677290 | 26.11° C | 94% | 1011 hPa | 0.76 mm | - | - | - |
| 1777676690 | 25.56° C | 94% | 1011 hPa | 1.27 mm | - | - | - |
| 1777676090 | 25.56° C | 94% | 1010.5 hPa | 1.27 mm | - | - | - |
| 1777675490 | 25.56° C | 94% | 1010.8 hPa | 1.02 mm | - | - | - |
| 1777674890 | 25.56° C | 94% | 1010.5 hPa | 1.02 mm | - | - | - |
| 1777674291 | 25.56° C | 92% | 1010.1 hPa | 0.76 mm | - | - | - |
| 1777673690 | 26.67° C | 93% | 1010.1 hPa | 0.25 mm | - | - | - |
| 1777673090 | 27.78° C | 90% | 1010.4 hPa | 0 mm | - | - | - |
| 1777672490 | 28.89° C | 86% | 1010.2 hPa | 0 mm | - | - | - |
| 1777671890 | 29.44° C | 84% | 1009.9 hPa | 0 mm | - | - | - |
| 1777671290 | 30° C | 82% | 1009.6 hPa | 0 mm | - | - | - |
| 1777670690 | 30° C | 81% | 1009.7 hPa | 0 mm | - | - | - |
| 1777670090 | 30° C | 79% | 1009.4 hPa | 0 mm | - | - | - |
| 1777669490 | 30.56° C | 78% | 1009.3 hPa | 0 mm | - | - | - |
| 1777668890 | 30.56° C | 79% | 1009.2 hPa | 0 mm | - | - | - |
| 1777668290 | 30° C | 81% | 1009.6 hPa | 0 mm | - | - | - |
| 1777667690 | 30.56° C | 80% | 1009.5 hPa | 0 mm | - | - | - |
| 1777667090 | 31.11° C | 79% | 1009.3 hPa | 0 mm | - | - | - |
| 1777666490 | 31.11° C | 78% | 1009.7 hPa | 0 mm | - | - | - |
| 1777665890 | 31.11° C | 77% | 1009.8 hPa | 0 mm | - | - | - |
* Rain latest hour (hover to see other rain measurements)
** Current wind speed in m/s (hover to see current wind gust speed)